Cartersville, Georgia
Current Conditions -  °F | °C
As of 5:53 PM on Monday 22 Dec 2014 (Local Time) from KVPC Reporting Station
Moderate Rain Moderate Rain  
Wind Chill: 41°   Ceiling: 800
Heat Index: 45°   Visibility: 4mi
Dew Point: 42°   Wind: 8mph
Humidity: 90%   Direction: 100°E
Pressure: 29.89"   Gusts: NA
Location:  34.17°N, 84.79°W
Report Text: KVPC 222253Z AUTO 10007KT 4SM RA BR OVC008 07/06 A2989 RMK AO2 CIG 006V011 SLP117 P0004 T00720056
Loading
Personal Weather Stations






























Interactive Weather Map New forecast layout! Learn more

10-Day Weather Forecast

Advertisements
Track Severe Weather on mobile